createdAt,value
2023-05-21T00:02:00.907Z,19.30
2023-05-21T00:04:31.721Z,19.30
2023-05-21T00:06:59.790Z,19.30
2023-05-21T00:09:29.551Z,19.30
2023-05-21T00:11:57.862Z,19.30
2023-05-21T00:14:26.012Z,19.20
2023-05-21T00:16:54.060Z,19.20
2023-05-21T00:19:22.439Z,19.20
2023-05-21T00:21:53.907Z,19.10
2023-05-21T00:24:22.156Z,19.20
2023-05-21T00:26:51.509Z,19.20
2023-05-21T00:29:20.284Z,19.00
2023-05-21T00:31:48.774Z,19.10
2023-05-21T00:34:18.223Z,19.00
2023-05-21T00:36:47.103Z,19.00
2023-05-21T00:39:15.650Z,19.10
2023-05-21T00:41:46.722Z,18.90
2023-05-21T00:44:17.261Z,18.90
2023-05-21T00:46:48.947Z,19.00
2023-05-21T00:49:17.900Z,19.00
2023-05-21T00:51:49.826Z,18.90
2023-05-21T00:54:20.708Z,18.90
2023-05-21T00:56:49.979Z,18.80
2023-05-21T00:59:20.145Z,18.80
2023-05-21T01:01:54.109Z,18.80
2023-05-21T01:04:22.410Z,18.90
2023-05-21T01:06:56.659Z,18.90
2023-05-21T01:09:25.351Z,19.00
2023-05-21T01:11:57.886Z,19.00
2023-05-21T01:14:28.238Z,18.80
2023-05-21T01:16:56.930Z,18.90
2023-05-21T01:19:26.124Z,18.90
2023-05-21T01:22:01.598Z,18.80
2023-05-21T01:24:31.510Z,18.80
2023-05-21T01:27:00.376Z,19.00
2023-05-21T01:29:28.935Z,18.80
2023-05-21T01:32:04.206Z,18.90
2023-05-21T01:34:36.653Z,18.90
2023-05-21T01:37:15.728Z,18.80
2023-05-21T01:39:49.205Z,18.70
2023-05-21T01:42:20.033Z,18.70
2023-05-21T01:44:48.829Z,18.70
2023-05-21T01:47:19.148Z,18.70
2023-05-21T01:49:47.846Z,18.70
2023-05-21T01:52:16.086Z,18.70
2023-05-21T01:54:45.537Z,18.60
2023-05-21T01:57:13.808Z,18.70
2023-05-21T01:59:42.443Z,18.70
2023-05-21T02:02:10.549Z,18.60
2023-05-21T02:04:41.555Z,18.60
2023-05-21T02:07:10.387Z,18.50
2023-05-21T02:09:38.360Z,18.60
2023-05-21T02:12:09.978Z,18.50
2023-05-21T02:14:38.514Z,18.40
2023-05-21T02:17:08.193Z,18.40
2023-05-21T02:19:36.898Z,18.40
2023-05-21T02:22:05.146Z,18.50
2023-05-21T02:24:33.327Z,18.40
2023-05-21T02:27:01.388Z,18.40
2023-05-21T02:29:30.985Z,18.30
2023-05-21T02:31:59.079Z,18.30
2023-05-21T02:34:30.533Z,18.30
2023-05-21T02:36:58.931Z,18.30
2023-05-21T02:39:27.391Z,18.40
2023-05-21T02:41:55.363Z,18.40
2023-05-21T02:44:24.361Z,18.40
2023-05-21T02:46:53.900Z,18.30
2023-05-21T02:49:22.022Z,18.30
2023-05-21T02:51:50.054Z,18.20
2023-05-21T02:54:18.061Z,18.20
2023-05-21T02:56:46.276Z,18.20
2023-05-21T02:59:14.397Z,18.20
2023-05-21T03:01:45.543Z,18.20
2023-05-21T03:04:15.312Z,18.20
2023-05-21T03:06:43.318Z,18.10
2023-05-21T03:09:11.389Z,18.10
2023-05-21T03:11:39.470Z,18.20
2023-05-21T03:14:09.969Z,18.10
2023-05-21T03:16:38.219Z,17.90
2023-05-21T03:19:06.667Z,17.90
2023-05-21T03:21:36.828Z,17.70
2023-05-21T03:24:05.998Z,17.70
2023-05-21T03:26:34.041Z,17.60
2023-05-21T03:29:02.420Z,17.50
2023-05-21T03:31:30.386Z,17.50
2023-05-21T03:33:58.320Z,17.50
2023-05-21T03:36:26.315Z,17.40
2023-05-21T03:38:55.757Z,17.40
2023-05-21T03:41:23.816Z,17.30
2023-05-21T03:43:51.735Z,17.20
2023-05-21T03:46:19.721Z,17.20
2023-05-21T03:48:47.625Z,17.30
2023-05-21T03:51:16.064Z,17.40
2023-05-21T03:53:44.012Z,17.40
2023-05-21T03:56:13.513Z,17.40
2023-05-21T03:58:41.546Z,17.40
2023-05-21T04:01:10.823Z,17.40
2023-05-21T04:03:40.754Z,17.40
2023-05-21T04:06:10.368Z,17.40
2023-05-21T04:08:38.603Z,17.50
2023-05-21T04:11:06.632Z,17.40
2023-05-21T04:13:36.287Z,17.50
2023-05-21T04:16:04.286Z,17.60
2023-05-21T04:18:34.332Z,17.50
2023-05-21T04:21:02.493Z,17.50
2023-05-21T04:23:30.319Z,17.50
2023-05-21T04:25:58.276Z,17.60
2023-05-21T04:28:28.973Z,17.50
2023-05-21T04:30:58.784Z,17.60
2023-05-21T04:33:27.160Z,17.50
2023-05-21T04:35:55.234Z,17.50
2023-05-21T04:38:23.276Z,17.50
2023-05-21T04:40:52.090Z,17.50
2023-05-21T04:43:25.653Z,17.60
2023-05-21T04:45:54.862Z,17.60
2023-05-21T04:48:25.726Z,17.70
2023-05-21T04:50:54.237Z,17.70
2023-05-21T04:53:22.297Z,17.80
2023-05-21T04:55:50.314Z,17.80
2023-05-21T04:58:19.396Z,17.80
2023-05-21T05:00:47.569Z,17.80
2023-05-21T05:03:15.808Z,17.80
2023-05-21T05:05:45.295Z,17.90
2023-05-21T05:08:15.519Z,17.90
2023-05-21T05:10:43.977Z,18.00
2023-05-21T05:13:15.113Z,18.00
2023-05-21T05:15:43.035Z,18.00
2023-05-21T05:18:11.679Z,18.10
2023-05-21T05:20:39.683Z,18.20
2023-05-21T05:23:09.003Z,18.20
2023-05-21T05:25:37.358Z,18.20
2023-05-21T05:28:05.950Z,18.30
2023-05-21T05:30:34.173Z,18.30
2023-05-21T05:33:02.230Z,18.30
2023-05-21T05:35:30.328Z,18.30
2023-05-21T05:37:58.244Z,18.40
2023-05-21T05:40:27.845Z,18.50
2023-05-21T05:42:55.786Z,18.60
2023-05-21T05:45:23.771Z,18.50
2023-05-21T05:47:51.838Z,18.40
2023-05-21T05:50:19.990Z,18.60
2023-05-21T05:52:48.228Z,18.60
2023-05-21T05:55:16.339Z,18.70
2023-05-21T05:57:45.855Z,18.70
2023-05-21T06:00:16.009Z,18.80
2023-05-21T06:02:44.095Z,18.80
2023-05-21T06:05:12.388Z,18.80
2023-05-21T06:07:42.096Z,18.90
2023-05-21T06:10:10.889Z,18.90
2023-05-21T06:12:40.074Z,19.00
2023-05-21T06:15:10.809Z,19.00
2023-05-21T06:17:39.176Z,18.90
2023-05-21T06:20:09.700Z,19.00
2023-05-21T06:22:38.125Z,19.00
2023-05-21T06:25:07.207Z,19.20
2023-05-21T06:27:35.297Z,19.20
2023-05-21T06:30:03.456Z,19.30
2023-05-21T06:32:32.995Z,19.20
2023-05-21T06:35:01.274Z,19.20
2023-05-21T06:37:29.747Z,19.40
2023-05-21T06:39:58.091Z,19.50
2023-05-21T06:42:26.268Z,19.50
2023-05-21T06:44:54.374Z,19.60
2023-05-21T06:47:22.706Z,19.80
2023-05-21T06:49:52.320Z,19.80
2023-05-21T06:52:20.389Z,20.00
2023-05-21T06:54:48.402Z,20.10
2023-05-21T06:57:17.362Z,20.20
2023-05-21T06:59:45.516Z,20.20
2023-05-21T07:02:13.482Z,20.30
2023-05-21T07:04:41.571Z,20.50
2023-05-21T07:07:11.033Z,20.70
2023-05-21T07:09:39.216Z,20.80
2023-05-21T07:12:08.681Z,20.70
2023-05-21T07:14:36.755Z,20.80
2023-05-21T07:17:04.929Z,20.80
2023-05-21T07:19:33.088Z,20.90
2023-05-21T07:22:01.162Z,21.00
2023-05-21T07:24:30.786Z,21.10
2023-05-21T07:26:58.705Z,21.10
2023-05-21T07:29:28.948Z,21.20
2023-05-21T07:31:56.921Z,21.20
2023-05-21T07:34:25.097Z,21.30
2023-05-21T07:36:53.200Z,21.40
2023-05-21T07:39:23.945Z,21.30
2023-05-21T07:41:53.611Z,21.60
2023-05-21T07:44:21.588Z,21.70
2023-05-21T07:46:49.802Z,21.80
2023-05-21T07:49:17.946Z,21.90
2023-05-21T07:51:53.410Z,22.00
2023-05-21T07:54:21.584Z,22.10
2023-05-21T07:56:49.875Z,22.20
2023-05-21T07:59:19.670Z,22.20
2023-05-21T08:02:00.015Z,22.30
2023-05-21T08:04:33.117Z,22.40
2023-05-21T08:07:01.078Z,22.40
2023-05-21T08:09:29.448Z,22.30
2023-05-21T08:11:57.445Z,22.50
2023-05-21T08:14:26.930Z,22.70
2023-05-21T08:16:54.993Z,22.80
2023-05-21T08:19:23.074Z,22.70
2023-05-21T08:21:52.852Z,22.90
2023-05-21T08:24:21.150Z,22.90
2023-05-21T08:26:50.885Z,23.00
2023-05-21T08:29:19.966Z,23.20
2023-05-21T08:31:49.554Z,23.20
2023-05-21T08:34:18.929Z,23.10
2023-05-21T08:36:48.058Z,23.00
2023-05-21T08:39:16.041Z,23.20
2023-05-21T08:41:49.684Z,23.30
2023-05-21T08:44:22.283Z,23.20
2023-05-21T08:46:52.367Z,23.20
2023-05-21T08:49:28.996Z,23.50
2023-05-21T08:51:57.316Z,23.40
2023-05-21T08:54:25.327Z,23.40
2023-05-21T08:56:54.565Z,23.30
2023-05-21T08:59:23.066Z,23.40
2023-05-21T09:01:53.984Z,23.50
2023-05-21T09:04:22.419Z,23.60
2023-05-21T09:06:51.012Z,23.50
2023-05-21T09:09:26.938Z,23.50
2023-05-21T09:11:55.305Z,23.70
2023-05-21T09:14:24.944Z,23.60
2023-05-21T09:16:54.495Z,23.50
2023-05-21T09:19:22.644Z,23.70
2023-05-21T09:21:52.865Z,23.90
2023-05-21T09:24:23.691Z,24.10
2023-05-21T09:26:52.488Z,24.30
2023-05-21T09:29:20.469Z,24.40
2023-05-21T09:31:48.405Z,24.20
2023-05-21T09:34:17.786Z,24.20
2023-05-21T09:36:46.041Z,24.40
2023-05-21T09:39:18.118Z,24.50
2023-05-21T09:41:46.110Z,24.50
2023-05-21T09:44:14.012Z,24.50
2023-05-21T09:46:42.885Z,24.50
2023-05-21T09:49:24.706Z,24.40
2023-05-21T09:51:56.404Z,24.40
2023-05-21T09:54:24.570Z,24.60
2023-05-21T09:56:53.646Z,24.60
2023-05-21T09:59:22.633Z,24.80
2023-05-21T10:01:53.178Z,24.70
2023-05-21T10:04:42.632Z,24.80
2023-05-21T10:07:10.843Z,25.00
2023-05-21T10:09:39.357Z,25.20
2023-05-21T10:12:08.403Z,25.00
2023-05-21T10:14:37.011Z,25.20
2023-05-21T10:17:07.428Z,25.20
2023-05-21T10:19:38.730Z,25.40
2023-05-21T10:22:07.657Z,25.60
2023-05-21T10:24:36.538Z,25.60
2023-05-21T10:27:04.969Z,25.80
2023-05-21T10:29:33.486Z,25.90
2023-05-21T10:32:03.036Z,26.00
2023-05-21T10:34:32.198Z,26.20
2023-05-21T10:37:03.721Z,26.10
2023-05-21T10:39:32.511Z,26.30
2023-05-21T10:42:13.028Z,26.20
2023-05-21T10:44:51.001Z,26.20
2023-05-21T10:47:42.121Z,26.40
2023-05-21T10:50:27.769Z,26.40
2023-05-21T10:53:10.675Z,26.70
2023-05-21T10:55:49.745Z,26.80
2023-05-21T10:58:40.939Z,27.10
2023-05-21T11:01:09.501Z,27.30
2023-05-21T11:03:38.268Z,27.20
2023-05-21T11:06:06.907Z,27.40
2023-05-21T11:08:37.647Z,27.50
2023-05-21T11:11:06.467Z,27.40
2023-05-21T11:13:49.898Z,27.30
2023-05-21T11:16:18.563Z,27.60
2023-05-21T11:19:03.109Z,27.40
2023-05-21T11:21:32.463Z,27.50
2023-05-21T11:24:08.416Z,27.60
2023-05-21T11:27:08.576Z,27.80
2023-05-21T11:29:41.758Z,27.90
2023-05-21T11:32:10.971Z,28.00
2023-05-21T11:34:40.669Z,27.90
2023-05-21T11:37:30.254Z,27.90
2023-05-21T11:40:21.606Z,28.20
2023-05-21T11:42:53.675Z,28.30
2023-05-21T11:45:23.310Z,28.30
2023-05-21T11:47:52.773Z,28.10
2023-05-21T11:50:21.241Z,28.20
2023-05-21T11:52:50.633Z,28.30
2023-05-21T11:55:26.087Z,28.40
2023-05-21T11:57:55.564Z,28.20
2023-05-21T12:00:23.658Z,28.40
2023-05-21T12:02:53.667Z,28.30
2023-05-21T12:05:24.278Z,28.50
2023-05-21T12:07:52.261Z,28.70
2023-05-21T12:10:24.490Z,28.70
2023-05-21T12:12:56.502Z,28.90
2023-05-21T12:15:26.372Z,28.60
2023-05-21T12:17:56.014Z,29.00
2023-05-21T12:20:24.556Z,29.00
2023-05-21T12:22:52.815Z,28.80
2023-05-21T12:25:21.294Z,28.90
2023-05-21T12:27:58.098Z,28.90
2023-05-21T12:30:26.998Z,29.10
2023-05-21T12:32:55.050Z,29.00
2023-05-21T12:35:24.637Z,28.60
2023-05-21T12:37:55.063Z,28.80
2023-05-21T12:40:22.947Z,28.90
2023-05-21T12:42:53.193Z,28.90
2023-05-21T12:45:22.888Z,28.90
2023-05-21T12:47:56.038Z,28.90
2023-05-21T12:50:25.273Z,29.00
2023-05-21T12:52:59.789Z,29.00
2023-05-21T12:55:37.251Z,29.10
2023-05-21T12:58:09.453Z,29.10
2023-05-21T13:00:38.468Z,29.10
2023-05-21T13:03:07.599Z,29.20
2023-05-21T13:05:36.293Z,29.20
2023-05-21T13:08:05.643Z,29.10
2023-05-21T13:10:33.817Z,29.20
2023-05-21T13:13:02.436Z,29.30
2023-05-21T13:15:32.103Z,29.30
2023-05-21T13:18:01.789Z,29.40
2023-05-21T13:20:30.216Z,29.50
2023-05-21T13:22:58.606Z,29.70
2023-05-21T13:25:29.325Z,29.70
2023-05-21T13:27:58.411Z,29.70
2023-05-21T13:30:28.836Z,29.80
2023-05-21T13:32:58.662Z,29.90
2023-05-21T13:35:30.463Z,29.70
2023-05-21T13:37:58.607Z,229.40
2023-05-21T13:40:27.064Z,229.40
2023-05-21T13:42:57.280Z,229.40
2023-05-21T13:45:29.582Z,229.40
2023-05-21T13:48:00.316Z,229.40
2023-05-21T13:50:28.753Z,229.40
2023-05-21T13:52:56.927Z,229.40
2023-05-21T13:55:25.304Z,229.40
2023-05-21T13:57:53.643Z,229.40
2023-05-21T14:00:22.173Z,30.30
2023-05-21T14:02:51.474Z,30.20
2023-05-21T14:05:21.053Z,30.30
2023-05-21T14:07:49.776Z,30.40
2023-05-21T14:10:18.449Z,30.50
2023-05-21T14:12:47.378Z,30.30
2023-05-21T14:15:16.206Z,30.30
2023-05-21T14:17:44.170Z,30.30
2023-05-21T14:20:12.974Z,30.30
2023-05-21T14:22:42.553Z,30.30
2023-05-21T14:25:11.059Z,30.30
2023-05-21T14:27:40.092Z,30.10
2023-05-21T14:30:10.301Z,30.10
2023-05-21T14:32:38.463Z,30.20
2023-05-21T14:35:07.062Z,29.80
2023-05-21T14:37:35.054Z,30.20
2023-05-21T14:40:05.613Z,30.10
2023-05-21T14:42:33.779Z,30.00
2023-05-21T14:45:16.808Z,30.20
2023-05-21T14:47:46.141Z,30.10
2023-05-21T14:50:14.934Z,30.20
2023-05-21T14:52:43.655Z,30.00
2023-05-21T14:55:13.940Z,30.00
2023-05-21T14:57:41.993Z,30.00
2023-05-21T15:00:11.672Z,30.10
2023-05-21T15:02:40.492Z,30.10
2023-05-21T15:05:09.331Z,30.10
2023-05-21T15:07:37.377Z,30.20
2023-05-21T15:10:06.178Z,30.10
2023-05-21T15:12:35.667Z,30.10
2023-05-21T15:15:03.825Z,30.10
2023-05-21T15:17:33.189Z,30.10
2023-05-21T15:20:04.445Z,30.10
2023-05-21T15:22:32.732Z,30.10
2023-05-21T15:25:01.995Z,30.10
2023-05-21T15:27:29.941Z,30.30
2023-05-21T15:29:59.585Z,30.20
2023-05-21T15:32:27.839Z,30.30
2023-05-21T15:34:55.899Z,30.20
2023-05-21T15:37:23.954Z,30.20
2023-05-21T15:39:53.469Z,30.20
2023-05-21T15:42:21.349Z,30.30
2023-05-21T15:44:49.432Z,30.20
2023-05-21T15:47:18.649Z,30.30
2023-05-21T15:49:46.641Z,30.40
2023-05-21T15:52:14.490Z,30.20
2023-05-21T15:54:42.404Z,30.30
2023-05-21T15:57:10.397Z,30.40
2023-05-21T15:59:38.343Z,30.30
2023-05-21T16:02:06.893Z,30.30
2023-05-21T16:04:36.252Z,30.30
2023-05-21T16:07:04.201Z,30.50
2023-05-21T16:09:32.172Z,30.70
2023-05-21T16:12:00.107Z,30.70
2023-05-21T16:14:29.428Z,30.50
2023-05-21T16:16:57.458Z,30.50
2023-05-21T16:19:25.674Z,30.50
2023-05-21T16:21:55.161Z,30.60
2023-05-21T16:24:24.024Z,30.60
2023-05-21T16:26:52.121Z,30.60
2023-05-21T16:29:21.987Z,30.50
2023-05-21T16:31:50.278Z,30.50
2023-05-21T16:34:18.338Z,30.50
2023-05-21T16:36:46.414Z,30.50
2023-05-21T16:39:16.004Z,30.60
2023-05-21T16:41:44.889Z,30.40
2023-05-21T16:44:12.802Z,30.30
2023-05-21T16:46:40.890Z,30.30
2023-05-21T16:49:08.925Z,30.30
2023-05-21T16:51:36.836Z,30.40
2023-05-21T16:54:06.102Z,30.30
2023-05-21T16:56:35.773Z,30.30
2023-05-21T16:59:03.831Z,30.30
2023-05-21T17:01:31.910Z,30.20
2023-05-21T17:04:00.126Z,30.20
2023-05-21T17:06:28.391Z,30.30
2023-05-21T17:08:56.621Z,30.30
2023-05-21T17:11:24.466Z,30.30
2023-05-21T17:13:54.041Z,30.30
2023-05-21T17:16:22.226Z,30.30
2023-05-21T17:18:51.462Z,30.30
2023-05-21T17:21:19.821Z,30.40
2023-05-21T17:23:47.880Z,30.30
2023-05-21T17:26:17.016Z,30.40
2023-05-21T17:28:45.037Z,30.40
2023-05-21T17:31:15.369Z,30.40
2023-05-21T17:33:43.507Z,30.40
2023-05-21T17:36:11.659Z,30.40
2023-05-21T17:38:39.578Z,30.30
2023-05-21T17:41:07.574Z,30.30
2023-05-21T17:43:35.453Z,30.30
2023-05-21T17:46:03.373Z,30.30
2023-05-21T17:48:32.649Z,30.30
2023-05-21T17:51:00.750Z,30.20
2023-05-21T17:53:28.986Z,30.20
2023-05-21T17:55:57.071Z,30.20
2023-05-21T17:58:25.095Z,30.20
2023-05-21T18:00:54.165Z,30.10
2023-05-21T18:03:22.219Z,30.00
2023-05-21T18:05:52.104Z,30.10
2023-05-21T18:08:20.138Z,30.00
2023-05-21T18:10:48.222Z,30.00
2023-05-21T18:13:16.436Z,29.90
2023-05-21T18:15:45.113Z,30.00
2023-05-21T18:18:19.822Z,29.90
2023-05-21T18:20:48.889Z,29.90
2023-05-21T18:23:18.518Z,29.80
2023-05-21T18:25:46.445Z,29.80
2023-05-21T18:28:17.175Z,29.80
2023-05-21T18:31:24.508Z,29.80
2023-05-21T18:33:56.279Z,29.80
2023-05-21T18:36:26.887Z,29.90
2023-05-21T18:38:58.054Z,29.80
2023-05-21T18:41:26.530Z,29.80
2023-05-21T18:43:55.830Z,29.70
2023-05-21T18:46:35.700Z,29.60
2023-05-21T18:49:07.010Z,29.60
2023-05-21T18:51:38.989Z,29.50
2023-05-21T18:54:13.451Z,29.50
2023-05-21T18:56:45.626Z,29.30
2023-05-21T18:59:14.400Z,29.30
2023-05-21T19:01:45.857Z,29.20
2023-05-21T19:04:15.229Z,29.00
2023-05-21T19:06:44.612Z,29.00
2023-05-21T19:09:14.711Z,28.90
2023-05-21T19:11:43.397Z,28.80
2023-05-21T19:14:14.316Z,28.70
2023-05-21T19:16:42.714Z,28.60
2023-05-21T19:19:10.872Z,28.50
2023-05-21T19:21:39.153Z,28.40
2023-05-21T19:24:08.367Z,28.30
2023-05-21T19:26:37.781Z,28.30
2023-05-21T19:29:05.857Z,28.20
2023-05-21T19:31:35.044Z,28.10
2023-05-21T19:34:04.584Z,28.10
2023-05-21T19:36:48.461Z,28.00
2023-05-21T19:39:20.014Z,27.90
2023-05-21T19:41:49.633Z,27.80
2023-05-21T19:44:17.637Z,27.70
2023-05-21T19:46:45.691Z,27.70
2023-05-21T19:49:14.572Z,27.70
2023-05-21T19:51:42.640Z,27.60
2023-05-21T19:54:10.742Z,27.60
2023-05-21T19:56:39.106Z,27.50
2023-05-21T19:59:08.740Z,27.50
2023-05-21T20:01:39.355Z,27.40
2023-05-21T20:04:08.091Z,27.40
2023-05-21T20:06:36.178Z,27.50
2023-05-21T20:09:04.449Z,27.50
2023-05-21T20:11:32.649Z,27.40
2023-05-21T20:14:03.026Z,27.50
2023-05-21T20:16:33.448Z,27.30
2023-05-21T20:19:02.017Z,27.30
2023-05-21T20:21:31.726Z,27.40
2023-05-21T20:23:59.970Z,27.30
2023-05-21T20:26:27.951Z,27.30
2023-05-21T20:28:56.040Z,27.20
2023-05-21T20:31:26.048Z,27.00
2023-05-21T20:33:55.568Z,26.90
2023-05-21T20:36:23.820Z,26.80
2023-05-21T20:38:51.893Z,26.70
2023-05-21T20:41:21.768Z,26.60
2023-05-21T20:43:50.029Z,26.40
2023-05-21T20:46:18.526Z,26.40
2023-05-21T20:48:48.091Z,26.40
2023-05-21T20:51:17.541Z,26.40
2023-05-21T20:53:45.451Z,26.30
2023-05-21T20:56:14.847Z,26.40
2023-05-21T20:58:42.753Z,26.40
2023-05-21T21:01:10.938Z,26.30
2023-05-21T21:03:41.498Z,26.20
2023-05-21T21:06:09.908Z,26.20
2023-05-21T21:08:40.370Z,26.20
2023-05-21T21:11:09.697Z,26.10
2023-05-21T21:13:37.711Z,26.10
2023-05-21T21:16:06.639Z,26.20
2023-05-21T21:18:34.825Z,26.10
2023-05-21T21:21:02.893Z,26.00
2023-05-21T21:23:30.873Z,25.90
2023-05-21T21:26:01.100Z,25.80
2023-05-21T21:28:29.128Z,25.70
2023-05-21T21:30:57.161Z,25.60
2023-05-21T21:33:26.876Z,25.60
2023-05-21T21:35:54.976Z,25.60
2023-05-21T21:38:25.540Z,25.60
2023-05-21T21:40:54.508Z,25.60
2023-05-21T21:43:23.822Z,25.60
2023-05-21T21:45:51.759Z,25.60
2023-05-21T21:48:22.400Z,25.60
2023-05-21T21:50:50.310Z,25.50
2023-05-21T21:53:18.291Z,25.50
2023-05-21T21:55:46.173Z,25.60
2023-05-21T21:58:14.142Z,25.50
2023-05-21T22:00:44.054Z,25.50
2023-05-21T22:03:14.575Z,25.50
2023-05-21T22:05:42.881Z,25.40
2023-05-21T22:08:10.855Z,25.40
2023-05-21T22:10:39.345Z,25.40
2023-05-21T22:13:07.595Z,25.40
2023-05-21T22:15:36.051Z,25.40
2023-05-21T22:18:05.793Z,25.30
2023-05-21T22:20:35.174Z,25.30
2023-05-21T22:23:03.306Z,25.20
2023-05-21T22:25:31.456Z,25.00
2023-05-21T22:27:59.382Z,24.90
2023-05-21T22:30:27.313Z,24.90
2023-05-21T22:32:55.212Z,24.70
2023-05-21T22:35:24.621Z,24.70
2023-05-21T22:37:52.514Z,24.60
2023-05-21T22:40:20.424Z,24.50
2023-05-21T22:42:48.567Z,24.50
2023-05-21T22:45:17.073Z,24.50
2023-05-21T22:47:45.037Z,24.50
2023-05-21T22:50:13.038Z,24.50
2023-05-21T22:52:43.325Z,24.40
2023-05-21T22:55:11.794Z,24.40
2023-05-21T22:57:40.848Z,24.30
2023-05-21T23:00:10.851Z,24.20
2023-05-21T23:02:38.798Z,24.20
2023-05-21T23:05:07.226Z,24.00
2023-05-21T23:07:35.178Z,23.90
2023-05-21T23:10:04.818Z,23.90
2023-05-21T23:12:32.665Z,23.80
2023-05-21T23:15:00.492Z,23.90
2023-05-21T23:17:28.590Z,23.90
2023-05-21T23:19:56.606Z,23.90
2023-05-21T23:22:24.519Z,23.90
2023-05-21T23:24:54.222Z,23.90
2023-05-21T23:27:24.033Z,23.90
2023-05-21T23:29:52.023Z,23.80
2023-05-21T23:32:19.960Z,23.80
2023-05-21T23:34:48.365Z,23.80
2023-05-21T23:37:16.410Z,23.80
2023-05-21T23:39:48.134Z,23.80
2023-05-21T23:42:16.489Z,23.80
2023-05-21T23:44:45.890Z,23.70
2023-05-21T23:47:13.736Z,23.70
2023-05-21T23:49:41.807Z,23.60
2023-05-21T23:52:13.076Z,23.50
2023-05-21T23:54:41.664Z,23.70
2023-05-21T23:57:09.553Z,23.60
2023-05-21T23:59:37.539Z,23.70
